sensor_id;sensor_type;location;lat;lon;timestamp;temperature;humidity
41630;DHT22;27322;49.488;8.480;2023-09-08T00:02:03;20.60;99.90
41630;DHT22;27322;49.488;8.480;2023-09-08T00:04:29;20.60;99.90
41630;DHT22;27322;49.488;8.480;2023-09-08T00:06:54;20.60;99.90
41630;DHT22;27322;49.488;8.480;2023-09-08T00:09:20;20.60;99.90
41630;DHT22;27322;49.488;8.480;2023-09-08T00:11:45;20.50;99.90
41630;DHT22;27322;49.488;8.480;2023-09-08T00:14:11;20.50;99.90
41630;DHT22;27322;49.488;8.480;2023-09-08T00:16:37;20.50;99.90
41630;DHT22;27322;49.488;8.480;2023-09-08T00:19:04;20.50;99.90
41630;DHT22;27322;49.488;8.480;2023-09-08T00:21:30;20.50;99.90
41630;DHT22;27322;49.488;8.480;2023-09-08T00:23:55;20.50;99.90
41630;DHT22;27322;49.488;8.480;2023-09-08T00:26:22;20.40;99.90
41630;DHT22;27322;49.488;8.480;2023-09-08T00:28:47;20.40;99.90
41630;DHT22;27322;49.488;8.480;2023-09-08T00:31:13;20.40;99.90
41630;DHT22;27322;49.488;8.480;2023-09-08T00:33:39;20.40;99.90
41630;DHT22;27322;49.488;8.480;2023-09-08T00:36:06;20.40;99.90
41630;DHT22;27322;49.488;8.480;2023-09-08T00:38:32;20.40;99.90
41630;DHT22;27322;49.488;8.480;2023-09-08T00:40:57;20.30;99.90
41630;DHT22;27322;49.488;8.480;2023-09-08T00:43:24;20.30;99.90
41630;DHT22;27322;49.488;8.480;2023-09-08T00:45:50;20.30;99.90
41630;DHT22;27322;49.488;8.480;2023-09-08T00:48:15;20.30;99.90
41630;DHT22;27322;49.488;8.480;2023-09-08T00:50:41;20.30;99.90
41630;DHT22;27322;49.488;8.480;2023-09-08T00:53:07;20.30;99.90
41630;DHT22;27322;49.488;8.480;2023-09-08T00:55:34;20.20;99.90
41630;DHT22;27322;49.488;8.480;2023-09-08T00:58:00;20.20;99.90
41630;DHT22;27322;49.488;8.480;2023-09-08T01:00:26;20.20;99.90
41630;DHT22;27322;49.488;8.480;2023-09-08T01:02:52;20.20;99.90
41630;DHT22;27322;49.488;8.480;2023-09-08T01:05:18;20.20;99.90
41630;DHT22;27322;49.488;8.480;2023-09-08T01:07:44;20.10;99.90
41630;DHT22;27322;49.488;8.480;2023-09-08T01:10:11;20.10;99.90
41630;DHT22;27322;49.488;8.480;2023-09-08T01:12:37;20.10;99.90
41630;DHT22;27322;49.488;8.480;2023-09-08T01:15:03;20.10;99.90
41630;DHT22;27322;49.488;8.480;2023-09-08T01:17:30;20.10;99.90
41630;DHT22;27322;49.488;8.480;2023-09-08T01:19:58;20.00;99.90
41630;DHT22;27322;49.488;8.480;2023-09-08T01:22:55;20.00;99.90
41630;DHT22;27322;49.488;8.480;2023-09-08T01:25:27;20.00;99.90
41630;DHT22;27322;49.488;8.480;2023-09-08T01:27:55;20.00;99.90
41630;DHT22;27322;49.488;8.480;2023-09-08T01:30:24;19.90;99.90
41630;DHT22;27322;49.488;8.480;2023-09-08T01:32:51;19.90;99.90
41630;DHT22;27322;49.488;8.480;2023-09-08T01:35:18;19.90;99.90
41630;DHT22;27322;49.488;8.480;2023-09-08T01:37:48;19.90;99.90
41630;DHT22;27322;49.488;8.480;2023-09-08T01:40:15;19.90;99.90
41630;DHT22;27322;49.488;8.480;2023-09-08T01:42:41;19.90;99.90
41630;DHT22;27322;49.488;8.480;2023-09-08T01:45:07;19.90;99.90
41630;DHT22;27322;49.488;8.480;2023-09-08T01:47:33;19.90;99.90
41630;DHT22;27322;49.488;8.480;2023-09-08T01:50:00;19.80;99.90
41630;DHT22;27322;49.488;8.480;2023-09-08T01:52:26;19.80;99.90
41630;DHT22;27322;49.488;8.480;2023-09-08T01:54:52;19.80;99.90
41630;DHT22;27322;49.488;8.480;2023-09-08T01:57:18;19.80;99.90
41630;DHT22;27322;49.488;8.480;2023-09-08T01:59:43;19.80;99.90
41630;DHT22;27322;49.488;8.480;2023-09-08T02:02:10;19.80;99.90
41630;DHT22;27322;49.488;8.480;2023-09-08T02:04:36;19.80;99.90
41630;DHT22;27322;49.488;8.480;2023-09-08T02:07:02;19.80;99.90
41630;DHT22;27322;49.488;8.480;2023-09-08T02:09:33;19.80;99.90
41630;DHT22;27322;49.488;8.480;2023-09-08T02:12:00;19.80;99.90
41630;DHT22;27322;49.488;8.480;2023-09-08T02:14:26;19.80;99.90
41630;DHT22;27322;49.488;8.480;2023-09-08T02:16:53;19.80;99.90
41630;DHT22;27322;49.488;8.480;2023-09-08T02:19:19;19.70;99.90
41630;DHT22;27322;49.488;8.480;2023-09-08T02:21:44;19.80;99.90
41630;DHT22;27322;49.488;8.480;2023-09-08T02:24:10;19.70;99.90
41630;DHT22;27322;49.488;8.480;2023-09-08T02:26:35;19.70;99.90
41630;DHT22;27322;49.488;8.480;2023-09-08T02:29:01;19.70;99.90
41630;DHT22;27322;49.488;8.480;2023-09-08T02:31:27;19.70;99.90
41630;DHT22;27322;49.488;8.480;2023-09-08T02:33:53;19.70;99.90
41630;DHT22;27322;49.488;8.480;2023-09-08T02:36:19;19.60;99.90
41630;DHT22;27322;49.488;8.480;2023-09-08T02:38:54;19.60;99.90
41630;DHT22;27322;49.488;8.480;2023-09-08T02:41:20;19.60;99.90
41630;DHT22;27322;49.488;8.480;2023-09-08T02:43:46;19.60;99.90
41630;DHT22;27322;49.488;8.480;2023-09-08T02:46:12;19.60;99.90
41630;DHT22;27322;49.488;8.480;2023-09-08T02:48:38;19.60;99.90
41630;DHT22;27322;49.488;8.480;2023-09-08T02:51:04;19.50;99.90
41630;DHT22;27322;49.488;8.480;2023-09-08T02:53:29;19.50;99.90
41630;DHT22;27322;49.488;8.480;2023-09-08T02:55:56;19.50;99.90
41630;DHT22;27322;49.488;8.480;2023-09-08T02:58:22;19.50;99.90
41630;DHT22;27322;49.488;8.480;2023-09-08T03:00:47;19.50;99.90
41630;DHT22;27322;49.488;8.480;2023-09-08T03:03:13;19.40;99.90
41630;DHT22;27322;49.488;8.480;2023-09-08T03:05:38;19.40;99.90
41630;DHT22;27322;49.488;8.480;2023-09-08T03:08:04;19.40;99.90
41630;DHT22;27322;49.488;8.480;2023-09-08T03:10:33;19.40;99.90
41630;DHT22;27322;49.488;8.480;2023-09-08T03:13:05;19.30;99.90
41630;DHT22;27322;49.488;8.480;2023-09-08T03:15:31;19.40;99.90
41630;DHT22;27322;49.488;8.480;2023-09-08T03:17:57;19.30;99.90
41630;DHT22;27322;49.488;8.480;2023-09-08T03:20:26;19.30;99.90
41630;DHT22;27322;49.488;8.480;2023-09-08T03:22:53;19.30;99.90
41630;DHT22;27322;49.488;8.480;2023-09-08T03:25:18;19.30;99.90
41630;DHT22;27322;49.488;8.480;2023-09-08T03:27:44;19.30;99.90
41630;DHT22;27322;49.488;8.480;2023-09-08T03:30:10;19.30;99.90
41630;DHT22;27322;49.488;8.480;2023-09-08T03:32:37;19.30;99.90
41630;DHT22;27322;49.488;8.480;2023-09-08T03:35:03;19.30;99.90
41630;DHT22;27322;49.488;8.480;2023-09-08T03:37:30;19.30;99.90
41630;DHT22;27322;49.488;8.480;2023-09-08T03:39:55;19.30;99.90
41630;DHT22;27322;49.488;8.480;2023-09-08T03:42:21;19.30;99.90
41630;DHT22;27322;49.488;8.480;2023-09-08T03:44:46;19.30;99.90
41630;DHT22;27322;49.488;8.480;2023-09-08T03:47:12;19.20;99.90
41630;DHT22;27322;49.488;8.480;2023-09-08T03:49:38;19.20;99.90
41630;DHT22;27322;49.488;8.480;2023-09-08T03:52:03;19.20;99.90
41630;DHT22;27322;49.488;8.480;2023-09-08T03:54:30;19.20;99.90
41630;DHT22;27322;49.488;8.480;2023-09-08T03:56:55;19.20;99.90
41630;DHT22;27322;49.488;8.480;2023-09-08T03:59:21;19.20;99.90
41630;DHT22;27322;49.488;8.480;2023-09-08T04:01:46;19.20;99.90
41630;DHT22;27322;49.488;8.480;2023-09-08T04:04:12;19.10;99.90
41630;DHT22;27322;49.488;8.480;2023-09-08T04:06:38;19.20;99.90
41630;DHT22;27322;49.488;8.480;2023-09-08T04:09:03;19.10;99.90
41630;DHT22;27322;49.488;8.480;2023-09-08T04:11:29;19.10;99.90
41630;DHT22;27322;49.488;8.480;2023-09-08T04:13:55;19.10;99.90
41630;DHT22;27322;49.488;8.480;2023-09-08T04:16:20;19.10;99.90
41630;DHT22;27322;49.488;8.480;2023-09-08T04:18:46;19.00;99.90
41630;DHT22;27322;49.488;8.480;2023-09-08T04:21:11;19.00;99.90
41630;DHT22;27322;49.488;8.480;2023-09-08T04:23:37;19.00;99.90
41630;DHT22;27322;49.488;8.480;2023-09-08T04:26:02;19.00;99.90
41630;DHT22;27322;49.488;8.480;2023-09-08T04:28:28;19.00;99.90
41630;DHT22;27322;49.488;8.480;2023-09-08T04:30:53;18.90;99.90
41630;DHT22;27322;49.488;8.480;2023-09-08T04:33:19;18.90;99.90
41630;DHT22;27322;49.488;8.480;2023-09-08T04:35:45;18.90;99.90
41630;DHT22;27322;49.488;8.480;2023-09-08T04:38:10;18.90;99.90
41630;DHT22;27322;49.488;8.480;2023-09-08T04:40:36;18.90;99.90
41630;DHT22;27322;49.488;8.480;2023-09-08T04:43:05;18.90;99.90
41630;DHT22;27322;49.488;8.480;2023-09-08T04:45:30;18.90;99.90
41630;DHT22;27322;49.488;8.480;2023-09-08T04:47:56;18.90;99.90
41630;DHT22;27322;49.488;8.480;2023-09-08T04:50:21;18.90;99.90
41630;DHT22;27322;49.488;8.480;2023-09-08T04:52:47;18.90;99.90
41630;DHT22;27322;49.488;8.480;2023-09-08T04:55:13;18.90;99.90
41630;DHT22;27322;49.488;8.480;2023-09-08T04:57:38;18.90;99.90
41630;DHT22;27322;49.488;8.480;2023-09-08T05:00:04;18.90;99.90
41630;DHT22;27322;49.488;8.480;2023-09-08T05:02:30;18.90;99.90
41630;DHT22;27322;49.488;8.480;2023-09-08T05:04:55;18.80;99.90
41630;DHT22;27322;49.488;8.480;2023-09-08T05:07:21;18.80;99.90
41630;DHT22;27322;49.488;8.480;2023-09-08T05:09:46;18.80;99.90
41630;DHT22;27322;49.488;8.480;2023-09-08T05:12:12;18.80;99.90
41630;DHT22;27322;49.488;8.480;2023-09-08T05:14:38;18.80;99.90
41630;DHT22;27322;49.488;8.480;2023-09-08T05:17:03;18.80;99.90
41630;DHT22;27322;49.488;8.480;2023-09-08T05:19:30;18.80;99.90
41630;DHT22;27322;49.488;8.480;2023-09-08T05:21:55;18.80;99.90
41630;DHT22;27322;49.488;8.480;2023-09-08T05:24:21;18.80;99.90
41630;DHT22;27322;49.488;8.480;2023-09-08T05:26:47;18.80;99.90
41630;DHT22;27322;49.488;8.480;2023-09-08T05:29:13;18.70;99.90
41630;DHT22;27322;49.488;8.480;2023-09-08T05:31:39;18.70;99.90
41630;DHT22;27322;49.488;8.480;2023-09-08T05:34:06;18.70;99.90
41630;DHT22;27322;49.488;8.480;2023-09-08T05:36:31;18.70;99.90
41630;DHT22;27322;49.488;8.480;2023-09-08T05:38:59;18.70;99.90
41630;DHT22;27322;49.488;8.480;2023-09-08T05:41:24;18.70;99.90
41630;DHT22;27322;49.488;8.480;2023-09-08T05:43:50;18.70;99.90
41630;DHT22;27322;49.488;8.480;2023-09-08T05:46:16;18.80;99.90
41630;DHT22;27322;49.488;8.480;2023-09-08T05:48:42;18.70;99.90
41630;DHT22;27322;49.488;8.480;2023-09-08T05:51:08;18.80;99.90
41630;DHT22;27322;49.488;8.480;2023-09-08T05:53:33;18.70;99.90
41630;DHT22;27322;49.488;8.480;2023-09-08T05:56:01;18.80;99.90
41630;DHT22;27322;49.488;8.480;2023-09-08T05:58:26;18.80;99.90
41630;DHT22;27322;49.488;8.480;2023-09-08T06:00:53;18.80;99.90
41630;DHT22;27322;49.488;8.480;2023-09-08T06:03:19;18.80;99.90
41630;DHT22;27322;49.488;8.480;2023-09-08T06:05:44;18.80;99.90
41630;DHT22;27322;49.488;8.480;2023-09-08T06:08:10;18.90;99.90
41630;DHT22;27322;49.488;8.480;2023-09-08T06:10:37;18.90;99.90
41630;DHT22;27322;49.488;8.480;2023-09-08T06:13:02;18.90;99.90
41630;DHT22;27322;49.488;8.480;2023-09-08T06:15:28;18.90;99.90
41630;DHT22;27322;49.488;8.480;2023-09-08T06:17:54;18.90;99.90
41630;DHT22;27322;49.488;8.480;2023-09-08T06:20:19;18.90;99.90
41630;DHT22;27322;49.488;8.480;2023-09-08T06:22:45;18.90;99.90
41630;DHT22;27322;49.488;8.480;2023-09-08T06:25:10;18.90;99.90
41630;DHT22;27322;49.488;8.480;2023-09-08T06:27:36;19.00;99.90
41630;DHT22;27322;49.488;8.480;2023-09-08T06:30:02;19.00;99.90
41630;DHT22;27322;49.488;8.480;2023-09-08T06:32:28;19.00;99.90
41630;DHT22;27322;49.488;8.480;2023-09-08T06:34:53;19.10;99.90
41630;DHT22;27322;49.488;8.480;2023-09-08T06:37:19;19.10;99.90
41630;DHT22;27322;49.488;8.480;2023-09-08T06:39:44;19.10;99.90
41630;DHT22;27322;49.488;8.480;2023-09-08T06:42:10;19.10;99.90
41630;DHT22;27322;49.488;8.480;2023-09-08T06:44:36;19.10;99.90
41630;DHT22;27322;49.488;8.480;2023-09-08T06:47:01;19.10;99.90
41630;DHT22;27322;49.488;8.480;2023-09-08T06:49:28;19.10;99.90
41630;DHT22;27322;49.488;8.480;2023-09-08T06:51:54;19.20;99.90
41630;DHT22;27322;49.488;8.480;2023-09-08T06:54:19;19.30;99.90
41630;DHT22;27322;49.488;8.480;2023-09-08T06:56:45;19.30;99.90
41630;DHT22;27322;49.488;8.480;2023-09-08T06:59:11;19.30;99.90
41630;DHT22;27322;49.488;8.480;2023-09-08T07:01:36;19.40;99.90
41630;DHT22;27322;49.488;8.480;2023-09-08T07:04:02;19.40;99.90
41630;DHT22;27322;49.488;8.480;2023-09-08T07:06:27;19.50;99.90
41630;DHT22;27322;49.488;8.480;2023-09-08T07:08:53;19.50;99.90
41630;DHT22;27322;49.488;8.480;2023-09-08T07:11:19;19.50;99.90
41630;DHT22;27322;49.488;8.480;2023-09-08T07:13:44;19.60;99.90
41630;DHT22;27322;49.488;8.480;2023-09-08T07:16:10;19.70;99.90
41630;DHT22;27322;49.488;8.480;2023-09-08T07:18:35;19.70;99.90
41630;DHT22;27322;49.488;8.480;2023-09-08T07:21:03;19.70;99.90
41630;DHT22;27322;49.488;8.480;2023-09-08T07:23:28;19.80;99.90
41630;DHT22;27322;49.488;8.480;2023-09-08T07:25:54;19.80;99.90
41630;DHT22;27322;49.488;8.480;2023-09-08T07:28:20;19.90;99.90
41630;DHT22;27322;49.488;8.480;2023-09-08T07:30:45;19.90;99.90
41630;DHT22;27322;49.488;8.480;2023-09-08T07:33:11;20.00;99.90
41630;DHT22;27322;49.488;8.480;2023-09-08T07:35:40;20.10;99.90
41630;DHT22;27322;49.488;8.480;2023-09-08T07:38:06;20.10;99.90
41630;DHT22;27322;49.488;8.480;2023-09-08T07:40:33;20.20;99.90
41630;DHT22;27322;49.488;8.480;2023-09-08T07:42:59;20.30;99.90
41630;DHT22;27322;49.488;8.480;2023-09-08T07:45:24;20.40;99.90
41630;DHT22;27322;49.488;8.480;2023-09-08T07:47:51;20.40;99.90
41630;DHT22;27322;49.488;8.480;2023-09-08T07:50:20;20.40;99.90
41630;DHT22;27322;49.488;8.480;2023-09-08T07:52:47;20.50;99.90
41630;DHT22;27322;49.488;8.480;2023-09-08T07:55:14;20.50;99.90
41630;DHT22;27322;49.488;8.480;2023-09-08T07:57:45;20.60;99.90
41630;DHT22;27322;49.488;8.480;2023-09-08T08:00:14;20.70;99.90
41630;DHT22;27322;49.488;8.480;2023-09-08T08:02:45;20.70;99.90
41630;DHT22;27322;49.488;8.480;2023-09-08T08:05:10;20.80;99.90
41630;DHT22;27322;49.488;8.480;2023-09-08T08:07:37;20.80;99.90
41630;DHT22;27322;49.488;8.480;2023-09-08T08:10:03;20.90;99.90
41630;DHT22;27322;49.488;8.480;2023-09-08T08:12:29;20.90;99.90
41630;DHT22;27322;49.488;8.480;2023-09-08T08:14:54;21.00;99.90
41630;DHT22;27322;49.488;8.480;2023-09-08T08:17:20;21.10;99.90
41630;DHT22;27322;49.488;8.480;2023-09-08T08:19:46;21.10;99.90
41630;DHT22;27322;49.488;8.480;2023-09-08T08:22:12;21.20;99.90
41630;DHT22;27322;49.488;8.480;2023-09-08T08:24:38;21.20;99.90
41630;DHT22;27322;49.488;8.480;2023-09-08T08:27:04;21.30;99.90
41630;DHT22;27322;49.488;8.480;2023-09-08T08:29:29;21.40;99.90
41630;DHT22;27322;49.488;8.480;2023-09-08T08:31:55;21.50;99.90
41630;DHT22;27322;49.488;8.480;2023-09-08T08:34:21;21.50;99.90
41630;DHT22;27322;49.488;8.480;2023-09-08T08:36:46;21.60;99.90
41630;DHT22;27322;49.488;8.480;2023-09-08T08:39:12;21.70;99.90
41630;DHT22;27322;49.488;8.480;2023-09-08T08:41:37;21.70;99.90
41630;DHT22;27322;49.488;8.480;2023-09-08T08:44:08;21.70;99.90
41630;DHT22;27322;49.488;8.480;2023-09-08T08:46:36;21.70;99.90
41630;DHT22;27322;49.488;8.480;2023-09-08T08:49:04;21.80;99.90
41630;DHT22;27322;49.488;8.480;2023-09-08T08:51:31;21.80;99.90
41630;DHT22;27322;49.488;8.480;2023-09-08T08:53:57;21.90;99.90
41630;DHT22;27322;49.488;8.480;2023-09-08T08:56:23;21.90;99.90
41630;DHT22;27322;49.488;8.480;2023-09-08T08:58:50;21.90;99.90
41630;DHT22;27322;49.488;8.480;2023-09-08T09:01:16;21.90;99.90
41630;DHT22;27322;49.488;8.480;2023-09-08T09:03:46;21.90;99.90
41630;DHT22;27322;49.488;8.480;2023-09-08T09:06:14;21.90;99.90
41630;DHT22;27322;49.488;8.480;2023-09-08T09:08:44;22.00;99.90
41630;DHT22;27322;49.488;8.480;2023-09-08T09:11:10;22.00;99.90
41630;DHT22;27322;49.488;8.480;2023-09-08T09:13:36;22.00;99.90
41630;DHT22;27322;49.488;8.480;2023-09-08T09:16:02;22.00;99.90
41630;DHT22;27322;49.488;8.480;2023-09-08T09:18:30;22.10;99.90
41630;DHT22;27322;49.488;8.480;2023-09-08T09:21:00;22.10;99.90
41630;DHT22;27322;49.488;8.480;2023-09-08T09:23:33;22.10;99.90
41630;DHT22;27322;49.488;8.480;2023-09-08T09:26:00;22.20;99.90
41630;DHT22;27322;49.488;8.480;2023-09-08T09:28:28;22.20;99.90
41630;DHT22;27322;49.488;8.480;2023-09-08T09:30:55;22.30;99.90
41630;DHT22;27322;49.488;8.480;2023-09-08T09:33:22;22.30;99.90
41630;DHT22;27322;49.488;8.480;2023-09-08T09:35:51;22.30;99.90
41630;DHT22;27322;49.488;8.480;2023-09-08T09:38:18;22.40;99.90
41630;DHT22;27322;49.488;8.480;2023-09-08T09:40:45;22.40;99.90
41630;DHT22;27322;49.488;8.480;2023-09-08T09:43:11;22.40;99.90
41630;DHT22;27322;49.488;8.480;2023-09-08T09:45:38;22.50;99.90
41630;DHT22;27322;49.488;8.480;2023-09-08T09:48:05;22.50;99.90
41630;DHT22;27322;49.488;8.480;2023-09-08T09:50:32;22.60;99.90
41630;DHT22;27322;49.488;8.480;2023-09-08T09:53:07;22.70;99.90
41630;DHT22;27322;49.488;8.480;2023-09-08T09:55:33;22.80;99.90
41630;DHT22;27322;49.488;8.480;2023-09-08T09:58:01;22.90;99.90
41630;DHT22;27322;49.488;8.480;2023-09-08T10:00:30;23.00;99.90
41630;DHT22;27322;49.488;8.480;2023-09-08T10:02:56;23.20;99.90
41630;DHT22;27322;49.488;8.480;2023-09-08T10:05:25;23.40;99.90
41630;DHT22;27322;49.488;8.480;2023-09-08T10:07:52;23.50;99.90
41630;DHT22;27322;49.488;8.480;2023-09-08T10:10:19;23.70;99.90
41630;DHT22;27322;49.488;8.480;2023-09-08T10:12:52;23.80;99.90
41630;DHT22;27322;49.488;8.480;2023-09-08T10:15:21;24.10;99.90
41630;DHT22;27322;49.488;8.480;2023-09-08T10:17:54;24.30;99.90
41630;DHT22;27322;49.488;8.480;2023-09-08T10:20:25;24.50;99.90
41630;DHT22;27322;49.488;8.480;2023-09-08T10:23:07;24.70;99.90
41630;DHT22;27322;49.488;8.480;2023-09-08T10:25:36;24.70;99.90
41630;DHT22;27322;49.488;8.480;2023-09-08T10:28:03;24.60;99.90
41630;DHT22;27322;49.488;8.480;2023-09-08T10:30:30;24.50;99.90
41630;DHT22;27322;49.488;8.480;2023-09-08T10:32:56;24.50;99.90
41630;DHT22;27322;49.488;8.480;2023-09-08T10:35:23;24.50;99.90
41630;DHT22;27322;49.488;8.480;2023-09-08T10:37:48;24.50;99.90
41630;DHT22;27322;49.488;8.480;2023-09-08T10:42:46;24.60;99.90
41630;DHT22;27322;49.488;8.480;2023-09-08T10:45:18;24.70;99.90
41630;DHT22;27322;49.488;8.480;2023-09-08T10:50:18;24.80;99.90
41630;DHT22;27322;49.488;8.480;2023-09-08T10:52:44;24.80;99.90
41630;DHT22;27322;49.488;8.480;2023-09-08T10:55:11;24.70;99.90
41630;DHT22;27322;49.488;8.480;2023-09-08T10:57:38;24.70;99.90
41630;DHT22;27322;49.488;8.480;2023-09-08T11:00:10;24.60;99.90
41630;DHT22;27322;49.488;8.480;2023-09-08T11:05:12;24.60;99.90
41630;DHT22;27322;49.488;8.480;2023-09-08T11:07:41;24.60;99.90
41630;DHT22;27322;49.488;8.480;2023-09-08T11:10:08;24.60;99.90
41630;DHT22;27322;49.488;8.480;2023-09-08T11:12:34;24.60;99.90
41630;DHT22;27322;49.488;8.480;2023-09-08T11:15:06;24.50;99.90
41630;DHT22;27322;49.488;8.480;2023-09-08T11:17:34;24.50;99.90
41630;DHT22;27322;49.488;8.480;2023-09-08T11:20:02;24.50;99.90
41630;DHT22;27322;49.488;8.480;2023-09-08T11:22:38;24.60;99.90
41630;DHT22;27322;49.488;8.480;2023-09-08T11:25:06;24.60;99.90
41630;DHT22;27322;49.488;8.480;2023-09-08T11:27:33;24.60;99.90
41630;DHT22;27322;49.488;8.480;2023-09-08T11:29:59;24.60;99.90
41630;DHT22;27322;49.488;8.480;2023-09-08T11:32:25;24.60;99.90
41630;DHT22;27322;49.488;8.480;2023-09-08T11:35:04;24.70;99.90
41630;DHT22;27322;49.488;8.480;2023-09-08T11:37:36;24.70;99.90
41630;DHT22;27322;49.488;8.480;2023-09-08T11:40:04;24.70;99.90
41630;DHT22;27322;49.488;8.480;2023-09-08T11:42:34;24.70;99.90
41630;DHT22;27322;49.488;8.480;2023-09-08T11:45:00;24.70;99.90
41630;DHT22;27322;49.488;8.480;2023-09-08T11:47:25;24.70;99.90
41630;DHT22;27322;49.488;8.480;2023-09-08T11:49:52;24.70;99.90
41630;DHT22;27322;49.488;8.480;2023-09-08T11:52:18;24.80;99.90
41630;DHT22;27322;49.488;8.480;2023-09-08T11:54:44;24.70;99.90
41630;DHT22;27322;49.488;8.480;2023-09-08T11:57:10;24.80;99.90
41630;DHT22;27322;49.488;8.480;2023-09-08T11:59:38;24.80;99.90
41630;DHT22;27322;49.488;8.480;2023-09-08T12:02:04;24.80;99.90
41630;DHT22;27322;49.488;8.480;2023-09-08T12:04:30;24.90;99.90
41630;DHT22;27322;49.488;8.480;2023-09-08T12:07:00;25.00;99.90
41630;DHT22;27322;49.488;8.480;2023-09-08T12:09:25;25.00;99.90
41630;DHT22;27322;49.488;8.480;2023-09-08T12:11:51;25.00;99.90
41630;DHT22;27322;49.488;8.480;2023-09-08T12:14:17;25.00;99.90
41630;DHT22;27322;49.488;8.480;2023-09-08T12:16:43;25.00;99.90
41630;DHT22;27322;49.488;8.480;2023-09-08T12:19:31;25.00;99.90
41630;DHT22;27322;49.488;8.480;2023-09-08T12:22:02;25.00;99.90
41630;DHT22;27322;49.488;8.480;2023-09-08T12:27:21;25.00;99.90
41630;DHT22;27322;49.488;8.480;2023-09-08T12:32:23;24.90;99.90
41630;DHT22;27322;49.488;8.480;2023-09-08T12:34:50;24.90;99.90
41630;DHT22;27322;49.488;8.480;2023-09-08T12:37:20;25.00;99.90
41630;DHT22;27322;49.488;8.480;2023-09-08T12:39:46;25.00;99.90
41630;DHT22;27322;49.488;8.480;2023-09-08T12:42:12;25.00;99.90
41630;DHT22;27322;49.488;8.480;2023-09-08T12:44:37;25.00;99.90
41630;DHT22;27322;49.488;8.480;2023-09-08T12:47:03;25.00;99.90
41630;DHT22;27322;49.488;8.480;2023-09-08T12:49:29;25.00;99.90
41630;DHT22;27322;49.488;8.480;2023-09-08T12:51:54;25.10;99.90
41630;DHT22;27322;49.488;8.480;2023-09-08T12:54:20;25.10;99.90
41630;DHT22;27322;49.488;8.480;2023-09-08T12:56:46;25.10;99.90
41630;DHT22;27322;49.488;8.480;2023-09-08T12:59:11;25.10;99.90
41630;DHT22;27322;49.488;8.480;2023-09-08T13:01:37;25.20;99.90
41630;DHT22;27322;49.488;8.480;2023-09-08T13:04:03;25.20;99.90
41630;DHT22;27322;49.488;8.480;2023-09-08T13:06:28;25.30;99.90
41630;DHT22;27322;49.488;8.480;2023-09-08T13:08:54;25.30;99.90
41630;DHT22;27322;49.488;8.480;2023-09-08T13:11:19;25.30;99.90
41630;DHT22;27322;49.488;8.480;2023-09-08T13:13:45;25.30;99.90
41630;DHT22;27322;49.488;8.480;2023-09-08T13:16:11;25.30;99.90
41630;DHT22;27322;49.488;8.480;2023-09-08T13:18:36;25.30;99.90
41630;DHT22;27322;49.488;8.480;2023-09-08T13:21:04;25.30;99.90
41630;DHT22;27322;49.488;8.480;2023-09-08T13:23:30;25.30;99.90
41630;DHT22;27322;49.488;8.480;2023-09-08T13:25:55;25.30;99.90
41630;DHT22;27322;49.488;8.480;2023-09-08T13:28:21;25.30;99.90
41630;DHT22;27322;49.488;8.480;2023-09-08T13:30:46;25.30;99.90
41630;DHT22;27322;49.488;8.480;2023-09-08T13:33:12;25.30;99.90
41630;DHT22;27322;49.488;8.480;2023-09-08T13:35:38;25.30;99.90
41630;DHT22;27322;49.488;8.480;2023-09-08T13:38:04;25.30;99.90
41630;DHT22;27322;49.488;8.480;2023-09-08T13:40:30;25.30;99.90
41630;DHT22;27322;49.488;8.480;2023-09-08T13:42:56;25.30;99.80
41630;DHT22;27322;49.488;8.480;2023-09-08T13:45:21;25.30;99.80
41630;DHT22;27322;49.488;8.480;2023-09-08T13:47:48;25.30;99.80
41630;DHT22;27322;49.488;8.480;2023-09-08T13:50:13;25.30;99.90
41630;DHT22;27322;49.488;8.480;2023-09-08T13:52:39;25.30;99.70
41630;DHT22;27322;49.488;8.480;2023-09-08T13:55:08;25.30;99.10
41630;DHT22;27322;49.488;8.480;2023-09-08T13:57:34;25.30;99.40
41630;DHT22;27322;49.488;8.480;2023-09-08T13:59:59;25.40;99.70
41630;DHT22;27322;49.488;8.480;2023-09-08T14:02:25;25.40;99.90
41630;DHT22;27322;49.488;8.480;2023-09-08T14:04:51;25.40;99.90
41630;DHT22;27322;49.488;8.480;2023-09-08T14:07:16;25.40;99.90
41630;DHT22;27322;49.488;8.480;2023-09-08T14:09:42;25.30;99.90
41630;DHT22;27322;49.488;8.480;2023-09-08T14:12:08;25.30;99.90
41630;DHT22;27322;49.488;8.480;2023-09-08T14:14:33;25.30;99.90
41630;DHT22;27322;49.488;8.480;2023-09-08T14:16:59;25.30;99.90
41630;DHT22;27322;49.488;8.480;2023-09-08T14:19:24;25.30;99.90
41630;DHT22;27322;49.488;8.480;2023-09-08T14:21:50;25.40;99.90
41630;DHT22;27322;49.488;8.480;2023-09-08T14:24:16;25.40;99.70
41630;DHT22;27322;49.488;8.480;2023-09-08T14:26:42;25.50;99.30
41630;DHT22;27322;49.488;8.480;2023-09-08T14:29:08;25.60;99.70
41630;DHT22;27322;49.488;8.480;2023-09-08T14:31:33;25.60;99.50
41630;DHT22;27322;49.488;8.480;2023-09-08T14:33:59;25.60;99.40
41630;DHT22;27322;49.488;8.480;2023-09-08T14:36:25;25.50;99.50
41630;DHT22;27322;49.488;8.480;2023-09-08T14:38:50;25.50;99.60
41630;DHT22;27322;49.488;8.480;2023-09-08T14:41:16;25.50;99.60
41630;DHT22;27322;49.488;8.480;2023-09-08T14:43:42;25.40;99.90
41630;DHT22;27322;49.488;8.480;2023-09-08T14:46:07;25.40;99.90
41630;DHT22;27322;49.488;8.480;2023-09-08T14:48:33;25.40;99.90
41630;DHT22;27322;49.488;8.480;2023-09-08T14:51:00;25.40;99.90
41630;DHT22;27322;49.488;8.480;2023-09-08T14:53:26;25.40;99.90
41630;DHT22;27322;49.488;8.480;2023-09-08T14:55:57;25.40;99.90
41630;DHT22;27322;49.488;8.480;2023-09-08T14:58:23;25.30;99.90
41630;DHT22;27322;49.488;8.480;2023-09-08T15:00:49;25.30;99.90
41630;DHT22;27322;49.488;8.480;2023-09-08T15:03:14;25.30;99.90
41630;DHT22;27322;49.488;8.480;2023-09-08T15:05:40;25.30;99.90
41630;DHT22;27322;49.488;8.480;2023-09-08T15:08:06;25.30;99.90
41630;DHT22;27322;49.488;8.480;2023-09-08T15:10:32;25.30;99.90
41630;DHT22;27322;49.488;8.480;2023-09-08T15:12:58;25.30;99.90
41630;DHT22;27322;49.488;8.480;2023-09-08T15:15:23;25.30;99.90
41630;DHT22;27322;49.488;8.480;2023-09-08T15:17:53;25.30;99.90
41630;DHT22;27322;49.488;8.480;2023-09-08T15:20:19;25.30;99.90
41630;DHT22;27322;49.488;8.480;2023-09-08T15:22:44;25.30;99.90
41630;DHT22;27322;49.488;8.480;2023-09-08T15:25:10;25.30;99.90
41630;DHT22;27322;49.488;8.480;2023-09-08T15:27:36;25.30;99.90
41630;DHT22;27322;49.488;8.480;2023-09-08T15:30:01;25.30;99.90
41630;DHT22;27322;49.488;8.480;2023-09-08T15:32:27;25.30;99.90
41630;DHT22;27322;49.488;8.480;2023-09-08T15:34:52;25.30;99.90
41630;DHT22;27322;49.488;8.480;2023-09-08T15:37:18;25.30;99.90
41630;DHT22;27322;49.488;8.480;2023-09-08T15:39:44;25.20;99.90